Time;durP1;ratioP1;P1;durP2;ratioP2;P2;SDS_P1;SDS_P2;PMS_P1;PMS_P2;Temp;Humidity;BMP_temperature;BMP_pressure;BME280_temperature;BME280_humidity;BME280_pressure;Samples;Min_cycle;Max_cycle;Signal;HPM_P1;HPM_P2
2023/05/29 00:01:08;;;;;;;18.85;6.07;;;;;;;11.70;85.72;102167.84;5010920;28;20436;-69
2023/05/29 00:03:33;;;;;;;14.40;4.82;;;;;;;11.62;85.61;102165.56;5013623;28;20239;-69
2023/05/29 00:06:00;;;;;;;11.50;4.50;;;;;;;11.59;85.09;102178.47;5005870;28;20076;-68
2023/05/29 00:08:26;;;;;;;17.10;4.65;;;;;;;11.52;85.21;102185.22;5005644;28;20444;-68
2023/05/29 00:10:51;;;;;;;14.40;5.00;;;;;;;11.46;85.28;102189.16;5007119;28;20064;-68
2023/05/29 00:13:17;;;;;;;16.45;5.43;;;;;;;11.41;85.82;102186.69;5007087;28;20048;-69
2023/05/29 00:15:42;;;;;;;14.60;4.32;;;;;;;11.36;86.58;102187.91;5007979;28;20067;-69
2023/05/29 00:18:07;;;;;;;17.70;4.85;;;;;;;11.32;86.66;102191.75;5007202;28;20446;-69
2023/05/29 00:20:34;;;;;;;12.23;5.22;;;;;;;11.28;87.35;102184.72;5006966;28;20111;-68
2023/05/29 00:23:01;;;;;;;10.23;5.20;;;;;;;11.25;86.86;102188.50;5007089;28;20049;-69
2023/05/29 00:25:27;;;;;;;12.77;4.40;;;;;;;11.21;86.47;102193.22;5006516;28;20402;-69
2023/05/29 00:27:52;;;;;;;12.75;4.07;;;;;;;11.14;85.93;102188.19;5006441;28;20121;-68
2023/05/29 00:30:18;;;;;;;15.52;3.92;;;;;;;11.11;84.47;102197.41;5005066;28;20415;-69
2023/05/29 00:32:43;;;;;;;14.75;3.85;;;;;;;11.02;84.14;102197.88;5008553;28;20099;-69
2023/05/29 00:35:09;;;;;;;15.60;4.78;;;;;;;10.97;83.58;102202.69;5005393;28;20504;-68
2023/05/29 00:37:34;;;;;;;15.50;4.07;;;;;;;10.92;83.05;102200.22;5006786;28;20481;-68
2023/05/29 00:40:00;;;;;;;15.20;3.45;;;;;;;10.91;82.57;102198.47;5021194;28;20497;-68
2023/05/29 00:42:25;;;;;;;12.88;3.13;;;;;;;10.88;82.04;102205.91;5004461;28;20488;-68
2023/05/29 00:44:51;;;;;;;15.98;3.72;;;;;;;10.81;82.42;102218.06;5004595;28;20022;-69
2023/05/29 00:47:17;;;;;;;10.90;3.55;;;;;;;10.77;81.54;102213.72;5005910;28;20056;-68
2023/05/29 00:49:42;;;;;;;12.10;3.17;;;;;;;10.68;82.26;102218.69;5006030;28;20029;-68
2023/05/29 00:52:10;;;;;;;9.18;2.72;;;;;;;10.68;81.40;102209.66;5007232;28;20549;-69
2023/05/29 00:54:36;;;;;;;8.80;3.20;;;;;;;10.63;81.71;102211.72;4994960;28;20170;-68
2023/05/29 00:57:03;;;;;;;14.63;3.75;;;;;;;10.60;81.57;102217.31;5024029;28;20030;-69
2023/05/29 00:59:33;;;;;;;13.43;3.35;;;;;;;10.58;81.22;102225.53;5023153;28;20045;-69
2023/05/29 01:02:02;;;;;;;12.50;3.35;;;;;;;10.46;81.61;102218.00;5014145;28;20034;-68
2023/05/29 01:04:27;;;;;;;17.27;2.90;;;;;;;10.45;81.88;102225.31;5030119;28;20042;-68
2023/05/29 01:06:53;;;;;;;18.05;2.95;;;;;;;10.38;82.06;102218.38;5029585;28;20048;-69
2023/05/29 01:09:18;;;;;;;15.98;4.25;;;;;;;10.36;81.50;102228.47;5028445;28;20045;-69
2023/05/29 01:11:51;;;;;;;17.30;3.30;;;;;;;10.32;81.94;102235.03;5024288;28;20053;-69
2023/05/29 01:14:45;;;;;;;14.18;3.00;;;;;;;10.29;81.77;102235.16;5008952;28;20081;-69
2023/05/29 01:17:21;;;;;;;12.75;2.88;;;;;;;10.24;82.72;102239.94;5008542;28;20363;-69
2023/05/29 01:20:09;;;;;;;15.95;3.42;;;;;;;10.18;82.25;102235.66;5021079;28;20071;-68
2023/05/29 01:22:46;;;;;;;18.15;3.20;;;;;;;10.12;82.93;102238.69;5030553;28;20107;-69
2023/05/29 01:25:44;;;;;;;16.45;3.22;;;;;;;10.10;82.18;102246.03;5029785;28;20041;-69
2023/05/29 01:28:12;;;;;;;16.05;4.00;;;;;;;10.05;83.23;102242.63;5026824;28;20147;-68
2023/05/29 01:30:40;;;;;;;20.42;3.75;;;;;;;9.99;83.94;102236.63;5027404;28;20037;-68
2023/05/29 01:33:07;;;;;;;13.57;3.95;;;;;;;9.94;83.71;102237.72;5019033;28;20084;-69
2023/05/29 01:35:32;;;;;;;10.07;3.72;;;;;;;9.90;84.71;102230.66;5010073;28;20121;-69
2023/05/29 01:37:57;;;;;;;14.57;2.67;;;;;;;9.89;84.02;102231.63;5008647;28;20042;-69
2023/05/29 01:40:23;;;;;;;10.90;2.90;;;;;;;9.87;84.35;102232.63;5008112;28;20038;-68
2023/05/29 01:42:51;;;;;;;19.00;3.78;;;;;;;9.84;85.12;102240.94;5025631;28;20026;-68
2023/05/29 01:45:17;;;;;;;15.25;3.63;;;;;;;9.79;84.48;102241.19;5029969;28;20041;-68
2023/05/29 01:47:49;;;;;;;13.07;3.67;;;;;;;9.80;84.21;102239.34;5021867;28;20033;-69
2023/05/29 01:50:17;;;;;;;15.50;3.13;;;;;;;9.76;85.04;102235.00;5010032;28;20049;-68
2023/05/29 01:52:43;;;;;;;14.70;3.92;;;;;;;9.75;84.61;102233.25;5008990;28;20029;-69
2023/05/29 01:55:09;;;;;;;16.75;3.35;;;;;;;9.69;84.87;102223.50;5013101;28;20276;-69
2023/05/29 01:57:35;;;;;;;14.60;3.30;;;;;;;9.65;85.07;102230.94;5015490;28;20068;-68
2023/05/29 02:00:08;;;;;;;14.30;3.20;;;;;;;9.63;85.71;102231.97;5024753;28;20034;-69
2023/05/29 02:02:40;;;;;;;15.93;2.83;;;;;;;9.62;84.86;102227.47;5014398;28;20048;-69
2023/05/29 02:05:08;;;;;;;12.65;3.13;;;;;;;9.57;85.52;102229.53;5027775;28;20053;-68
2023/05/29 02:07:39;;;;;;;17.20;3.35;;;;;;;9.55;85.09;102232.28;5029411;28;20075;-68
2023/05/29 02:10:05;;;;;;;9.00;2.67;;;;;;;9.55;85.51;102234.13;5027536;28;20041;-69
2023/05/29 02:12:31;;;;;;;15.15;2.92;;;;;;;9.52;85.20;102246.03;5021297;28;20056;-68
2023/05/29 02:14:57;;;;;;;11.98;3.20;;;;;;;9.50;85.39;102241.63;5007936;28;20160;-68
2023/05/29 02:17:22;;;;;;;16.65;2.92;;;;;;;9.47;84.82;102236.34;5011452;28;20468;-69
2023/05/29 02:19:48;;;;;;;9.73;3.13;;;;;;;9.41;85.91;102235.63;5025585;28;20041;-69
2023/05/29 02:22:13;;;;;;;9.20;3.17;;;;;;;9.39;85.96;102239.41;5008287;28;20053;-69
2023/05/29 02:24:39;;;;;;;10.80;2.70;;;;;;;9.37;85.70;102241.28;5012135;28;20083;-69
2023/05/29 02:27:06;;;;;;;10.32;3.45;;;;;;;9.36;85.77;102237.69;5025507;28;20033;-68
2023/05/29 02:29:33;;;;;;;17.92;3.45;;;;;;;9.32;85.69;102244.19;5009483;28;20103;-69
2023/05/29 02:31:58;;;;;;;15.10;3.35;;;;;;;9.30;85.61;102243.41;5007332;28;20037;-68
2023/05/29 02:34:24;;;;;;;12.95;3.30;;;;;;;9.29;85.53;102247.06;5009380;28;20092;-68
2023/05/29 02:36:51;;;;;;;16.65;3.03;;;;;;;9.28;85.69;102252.56;5007532;28;20037;-68
2023/05/29 02:39:17;;;;;;;11.13;3.13;;;;;;;9.24;85.83;102254.53;5007162;28;20124;-68
2023/05/29 02:41:43;;;;;;;16.48;3.45;;;;;;;9.22;85.43;102255.56;5008762;28;20397;-70
2023/05/29 02:44:08;;;;;;;18.05;4.10;;;;;;;9.25;85.68;102260.84;5008430;28;20032;-69
2023/05/29 02:46:33;;;;;;;14.80;3.50;;;;;;;9.19;85.91;102259.31;5007390;28;20046;-68
2023/05/29 02:48:59;;;;;;;10.88;2.55;;;;;;;9.17;85.61;102261.19;5022604;28;20045;-68
2023/05/29 02:51:24;;;;;;;15.30;3.22;;;;;;;9.16;85.31;102262.13;5026620;28;20418;-69
2023/05/29 02:53:49;;;;;;;12.73;3.17;;;;;;;9.12;85.63;102261.38;5008352;28;20124;-68
2023/05/29 02:56:15;;;;;;;9.90;2.33;;;;;;;9.09;85.98;102263.34;4990851;28;20445;-69
2023/05/29 02:58:41;;;;;;;20.70;3.85;;;;;;;9.04;85.94;102263.53;5019987;28;20489;-69
2023/05/29 03:01:07;;;;;;;11.07;2.97;;;;;;;8.99;86.70;102268.28;5028262;28;20033;-69
2023/05/29 03:03:33;;;;;;;12.23;3.17;;;;;;;8.96;86.51;102263.00;5015591;28;20121;-69
2023/05/29 03:05:58;;;;;;;11.50;2.80;;;;;;;8.92;86.61;102255.94;5008504;28;20045;-69
2023/05/29 03:08:25;;;;;;;12.60;2.83;;;;;;;8.93;86.91;102274.88;5006900;28;20026;-69
2023/05/29 03:10:51;;;;;;;16.27;3.50;;;;;;;8.93;86.51;102268.56;5007782;28;20490;-69
2023/05/29 03:13:18;;;;;;;14.15;2.97;;;;;;;8.91;87.16;102271.34;5007061;28;20038;-69
2023/05/29 03:15:51;;;;;;;14.73;2.78;;;;;;;8.89;87.13;102253.34;5006846;28;20478;-69
2023/05/29 03:18:17;;;;;;;16.02;3.10;;;;;;;8.86;87.53;102262.53;5013539;28;20030;-69
2023/05/29 03:20:42;;;;;;;19.17;3.75;;;;;;;8.87;87.62;102269.72;5023863;28;20045;-68
2023/05/29 03:23:08;;;;;;;17.85;3.30;;;;;;;8.83;87.74;102270.78;5023009;28;20087;-69
2023/05/29 03:25:34;;;;;;;17.48;3.28;;;;;;;8.83;87.46;102269.91;5012414;28;20091;-69
2023/05/29 03:28:00;;;;;;;12.57;2.90;;;;;;;8.80;88.04;102272.75;5010186;28;20486;-69
2023/05/29 03:30:25;;;;;;;16.33;2.78;;;;;;;8.78;87.92;102263.78;5023133;28;20034;-69
2023/05/29 03:32:53;;;;;;;20.42;2.88;;;;;;;8.76;88.20;102265.66;5012717;28;20413;-69
2023/05/29 03:35:25;;;;;;;18.00;3.58;;;;;;;8.74;88.86;102270.28;5026212;28;20055;-69
2023/05/29 03:37:51;;;;;;;16.08;3.47;;;;;;;8.73;88.65;102276.69;5024966;28;20033;-69
2023/05/29 03:40:17;;;;;;;12.15;3.40;;;;;;;8.69;89.55;102276.78;5025456;28;20036;-69
2023/05/29 03:42:42;;;;;;;12.88;2.60;;;;;;;8.65;89.76;102274.28;5024975;28;20033;-69
2023/05/29 03:45:08;;;;;;;23.58;3.67;;;;;;;8.66;89.41;102274.19;5009513;28;20048;-69
2023/05/29 03:47:36;;;;;;;19.65;3.17;;;;;;;8.65;90.04;102277.88;5025403;28;20349;-69
2023/05/29 03:50:02;;;;;;;17.88;3.35;;;;;;;8.64;89.76;102267.09;5025595;28;20128;-69
2023/05/29 03:52:31;;;;;;;11.82;3.08;;;;;;;8.66;89.67;102276.03;5024720;28;20443;-69
2023/05/29 03:54:57;;;;;;;13.77;4.25;;;;;;;8.66;89.97;102284.16;5025607;28;20025;-70
2023/05/29 03:57:23;;;;;;;19.35;3.90;;;;;;;8.65;89.80;102279.69;5023502;28;20110;-69
2023/05/29 03:59:48;;;;;;;14.07;4.45;;;;;;;8.66;90.20;102287.75;4990651;28;20516;-69
2023/05/29 04:02:14;;;;;;;13.27;3.40;;;;;;;8.67;89.95;102283.22;5007769;28;20030;-69
2023/05/29 04:04:40;;;;;;;13.05;2.90;;;;;;;8.67;90.70;102281.41;5005925;28;20026;-69
2023/05/29 04:07:06;;;;;;;15.18;3.25;;;;;;;8.68;90.23;102282.28;5005648;28;20301;-69
2023/05/29 04:09:33;;;;;;;21.73;3.38;;;;;;;8.67;90.14;102294.97;5005760;28;20517;-69
2023/05/29 04:12:02;;;;;;;18.10;2.90;;;;;;;8.69;90.66;102301.22;5004656;28;20505;-69
2023/05/29 04:14:27;;;;;;;19.50;3.45;;;;;;;8.69;90.69;102303.91;5021720;28;20060;-69
2023/05/29 04:16:52;;;;;;;17.35;3.05;;;;;;;8.69;90.23;102301.22;5021847;28;20125;-69
2023/05/29 04:19:18;;;;;;;13.27;3.40;;;;;;;8.72;90.35;102299.31;5007456;28;20056;-69
2023/05/29 04:21:44;;;;;;;19.80;3.40;;;;;;;8.75;90.05;102301.91;5006046;28;20129;-69
2023/05/29 04:24:10;;;;;;;16.10;3.83;;;;;;;8.75;89.68;102300.06;5005420;28;20032;-68
2023/05/29 04:26:40;;;;;;;10.20;3.40;;;;;;;8.78;89.51;102308.09;5020669;28;20316;-69
2023/05/29 04:29:09;;;;;;;13.40;3.00;;;;;;;8.78;89.27;102307.22;5023896;28;20460;-69
2023/05/29 04:31:36;;;;;;;13.18;3.13;;;;;;;8.82;89.27;102306.13;5023291;28;20041;-69
2023/05/29 04:34:04;;;;;;;15.20;3.38;;;;;;;8.85;88.91;102308.69;5025522;28;20025;-69
2023/05/29 04:36:32;;;;;;;13.15;3.08;;;;;;;8.83;89.21;102311.50;5023226;28;20050;-69
2023/05/29 04:39:07;;;;;;;23.67;4.85;;;;;;;8.89;88.25;102310.34;5009182;28;20060;-68
2023/05/29 04:41:33;;;;;;;14.70;3.55;;;;;;;8.94;88.67;102317.34;5009358;28;20034;-68
2023/05/29 04:44:01;;;;;;;13.60;3.67;;;;;;;8.97;88.17;102316.34;5021624;28;20497;-69
2023/05/29 04:46:34;;;;;;;;;;;;;;;9.02;86.88;102318.88;5010230;28;20473;-69
2023/05/29 04:49:02;;;;;;;13.77;3.25;;;;;;;9.01;88.04;102311.69;5022876;28;19920;-68
2023/05/29 04:51:29;;;;;;;12.05;3.50;;;;;;;9.07;87.90;102322.25;5025926;28;20516;-68
2023/05/29 04:53:55;;;;;;;15.60;3.13;;;;;;;9.09;87.79;102314.94;5027555;28;20484;-68
2023/05/29 04:56:21;;;;;;;16.60;2.95;;;;;;;9.13;87.48;102317.44;5013229;28;20120;-68
2023/05/29 04:58:47;;;;;;;11.07;3.58;;;;;;;9.19;87.25;102324.47;5023269;28;20033;-69
2023/05/29 05:01:17;;;;;;;19.27;4.40;;;;;;;9.27;86.80;102324.13;5028145;28;20517;-68
2023/05/29 05:03:43;;;;;;;23.13;4.00;;;;;;;9.32;86.96;102322.97;5031178;28;20624;-69
2023/05/29 05:06:08;;;;;;;13.07;2.63;;;;;;;9.35;87.19;102314.69;5030338;28;20040;-69
2023/05/29 05:08:35;;;;;;;14.60;2.95;;;;;;;9.41;86.47;102317.13;5027541;28;20033;-69
2023/05/29 05:11:02;;;;;;;12.50;3.15;;;;;;;9.43;86.29;102320.69;5027045;28;20136;-69
2023/05/29 05:13:27;;;;;;;14.07;3.55;;;;;;;9.46;85.73;102319.63;5022220;28;20045;-69
2023/05/29 05:15:53;;;;;;;13.40;3.15;;;;;;;9.47;85.70;102318.72;5008662;28;20382;-69
2023/05/29 05:18:19;;;;;;;23.33;5.35;;;;;;;9.52;85.69;102321.22;5008237;28;20034;-68
2023/05/29 05:20:52;;;;;;;14.10;2.95;;;;;;;9.52;85.69;102332.09;5008514;28;20410;-69
2023/05/29 05:23:17;;;;;;;18.45;2.92;;;;;;;9.54;85.08;102332.91;5008548;28;20175;-69
2023/05/29 05:25:42;;;;;;;18.77;3.70;;;;;;;9.58;85.52;102334.53;5008025;28;20037;-69
2023/05/29 05:28:08;;;;;;;17.88;2.65;;;;;;;9.64;84.26;102339.69;5009380;28;20045;-69
2023/05/29 05:30:35;;;;;;;11.15;3.38;;;;;;;9.71;85.27;102347.50;5007910;28;20050;-69
2023/05/29 05:33:00;;;;;;;17.33;3.28;;;;;;;9.80;85.36;102350.78;5007467;28;20438;-69
2023/05/29 05:35:25;;;;;;;11.35;3.30;;;;;;;9.84;84.21;102347.84;5022253;28;20034;-69
2023/05/29 05:37:51;;;;;;;11.57;2.92;;;;;;;9.85;84.17;102344.16;5008207;28;20091;-69
2023/05/29 05:40:17;;;;;;;15.57;4.15;;;;;;;9.93;84.18;102355.59;5008990;28;20462;-69
2023/05/29 05:42:57;;;;;;;17.40;3.40;;;;;;;9.96;83.41;102349.97;5023772;28;20470;-69
2023/05/29 05:45:41;;;;;;;20.02;2.88;;;;;;;10.05;83.03;102350.53;5008406;28;20735;-69
2023/05/29 05:48:07;;;;;;;16.30;3.40;;;;;;;10.11;83.39;102347.50;5011998;28;20319;-69
2023/05/29 05:50:33;;;;;;;16.17;3.58;;;;;;;10.12;81.83;102350.19;5007813;28;20037;-69
2023/05/29 05:52:59;;;;;;;18.05;3.65;;;;;;;10.11;82.25;102337.50;5008108;28;20032;-69
2023/05/29 05:55:26;;;;;;;13.68;2.63;;;;;;;10.14;81.78;102337.38;5006800;28;20125;-68
2023/05/29 05:57:51;;;;;;;11.07;2.72;;;;;;;10.20;82.67;102338.91;5007437;28;20129;-69
2023/05/29 06:00:17;;;;;;;18.13;2.97;;;;;;;10.29;81.63;102340.38;5007525;28;20034;-69
2023/05/29 06:02:44;;;;;;;18.30;3.60;;;;;;;10.34;81.14;102336.47;5010024;28;20116;-69
2023/05/29 06:05:12;;;;;;;17.52;2.85;;;;;;;10.39;80.81;102334.41;5008639;28;20196;-69
2023/05/29 06:07:38;;;;;;;17.08;3.13;;;;;;;10.43;80.34;102330.59;5007872;28;20764;-69
2023/05/29 06:10:04;;;;;;;13.80;3.50;;;;;;;10.51;80.40;102332.06;5009646;28;20030;-69
2023/05/29 06:12:30;;;;;;;11.77;2.80;;;;;;;10.50;78.92;102344.78;5025708;28;20037;-69
2023/05/29 06:15:04;;;;;;;13.00;3.20;;;;;;;10.51;79.18;102345.69;5027701;28;20422;-69
2023/05/29 06:17:29;;;;;;;20.52;3.10;;;;;;;10.56;79.64;102346.34;5020054;28;20145;-70
2023/05/29 06:19:55;;;;;;;15.70;2.90;;;;;;;10.65;79.00;102352.22;5007896;28;20501;-70
2023/05/29 06:22:21;;;;;;;14.55;3.28;;;;;;;10.69;79.19;102355.69;5007818;28;20033;-69
2023/05/29 06:24:47;;;;;;;14.80;3.90;;;;;;;10.77;78.29;102353.47;5007393;28;20144;-68
2023/05/29 06:27:12;;;;;;;18.92;3.90;;;;;;;10.80;77.54;102360.59;5007265;28;20133;-69
2023/05/29 06:29:38;;;;;;;19.55;4.93;;;;;;;10.83;77.65;102369.50;5024351;28;20562;-69
2023/05/29 06:32:05;;;;;;;9.23;2.63;;;;;;;10.86;77.65;102365.72;5006460;28;20034;-69
2023/05/29 06:34:30;;;;;;;15.07;3.15;;;;;;;10.89;77.10;102361.00;5007232;28;20037;-69
2023/05/29 06:36:56;;;;;;;18.23;3.08;;;;;;;10.95;76.88;102368.88;5007279;28;20033;-69
2023/05/29 06:39:21;;;;;;;14.65;3.08;;;;;;;11.01;76.54;102364.97;5019474;28;20029;-69
2023/05/29 06:41:47;;;;;;;14.93;2.58;;;;;;;11.05;76.01;102372.03;5008084;28;20037;-69
2023/05/29 06:44:17;;;;;;;12.20;2.42;;;;;;;11.07;75.68;102361.94;5012889;28;20088;-69
2023/05/29 06:46:42;;;;;;;9.23;2.15;;;;;;;11.15;74.31;102367.88;5007773;28;20641;-68
2023/05/29 06:49:08;;;;;;;18.30;3.92;;;;;;;11.11;74.68;102366.28;5013411;28;20026;-68
2023/05/29 06:51:33;;;;;;;12.25;2.65;;;;;;;11.15;74.37;102364.28;5009292;28;20735;-69
2023/05/29 06:54:17;;;;;;;13.45;3.55;;;;;;;11.24;75.51;102364.69;5008534;28;20057;-68
2023/05/29 06:56:42;;;;;;;13.15;2.60;;;;;;;11.30;73.76;102368.06;5015840;28;20034;-69
2023/05/29 06:59:08;;;;;;;10.32;2.88;;;;;;;11.33;73.09;102365.16;5020490;28;20029;-69
2023/05/29 07:01:34;;;;;;;14.85;3.33;;;;;;;11.36;74.30;102371.34;5006188;28;20038;-69
2023/05/29 07:04:02;;;;;;;8.85;2.55;;;;;;;11.45;73.81;102372.72;5007296;28;20398;-69
2023/05/29 07:06:28;;;;;;;12.43;2.17;;;;;;;11.50;72.59;102374.25;5005167;28;20121;-69
2023/05/29 07:08:54;;;;;;;13.55;2.45;;;;;;;11.52;72.84;102378.72;5007703;28;20121;-69
2023/05/29 07:11:19;;;;;;;11.65;2.47;;;;;;;11.57;73.09;102373.94;5015668;28;20033;-69
2023/05/29 07:13:44;;;;;;;15.88;2.55;;;;;;;11.59;72.03;102381.06;5005389;28;20061;-69
2023/05/29 07:16:10;;;;;;;14.75;2.42;;;;;;;11.61;71.17;102370.97;5025894;28;20029;-69
2023/05/29 07:18:35;;;;;;;18.90;3.55;;;;;;;11.63;71.03;102376.34;5015812;28;20030;-69
2023/05/29 07:21:01;;;;;;;9.25;2.13;;;;;;;11.70;71.30;102373.22;5024031;28;20036;-69
2023/05/29 07:23:27;;;;;;;15.45;2.53;;;;;;;11.86;71.65;102367.84;5011689;28;20034;-69
2023/05/29 07:25:53;;;;;;;11.50;2.88;;;;;;;11.91;70.74;102367.63;5009852;28;20042;-69
2023/05/29 07:28:18;;;;;;;15.30;3.22;;;;;;;11.98;70.81;102367.22;5014555;28;20056;-68
2023/05/29 07:30:44;;;;;;;15.73;2.33;;;;;;;12.12;71.80;102376.47;5009360;28;20076;-69
2023/05/29 07:33:09;;;;;;;14.73;2.50;;;;;;;12.14;70.02;102380.88;5016512;28;20040;-69
2023/05/29 07:35:35;;;;;;;11.35;3.03;;;;;;;12.20;70.59;102377.81;5005853;28;20494;-69
2023/05/29 07:38:02;;;;;;;10.52;2.42;;;;;;;12.19;68.76;102383.38;5006320;28;20041;-69
2023/05/29 07:40:28;;;;;;;17.42;3.25;;;;;;;12.20;68.77;102387.84;5005805;28;20038;-69
2023/05/29 07:42:56;;;;;;;12.55;2.38;;;;;;;12.19;67.97;102394.28;5007472;28;20030;-69
2023/05/29 07:45:23;;;;;;;11.80;2.38;;;;;;;12.21;68.10;102385.03;5006213;28;20048;-69
2023/05/29 07:47:48;;;;;;;13.55;2.63;;;;;;;12.28;68.21;102391.06;5006408;28;20038;-68
2023/05/29 07:50:15;;;;;;;18.67;2.55;;;;;;;12.31;68.30;102385.44;5006556;28;20141;-69
2023/05/29 07:52:42;;;;;;;13.13;2.60;;;;;;;12.40;68.35;102397.66;5005961;28;20030;-69
2023/05/29 07:55:08;;;;;;;17.65;2.65;;;;;;;12.42;69.28;102388.44;5005848;28;20504;-69
2023/05/29 07:57:34;;;;;;;5.45;2.20;;;;;;;12.52;69.54;102391.53;5007146;28;20025;-69
2023/05/29 08:00:00;;;;;;;10.75;2.90;;;;;;;12.56;67.01;102390.41;5006087;28;20451;-69
2023/05/29 08:02:27;;;;;;;12.48;2.75;;;;;;;12.77;69.56;102388.28;5007707;28;20060;-69
2023/05/29 08:05:21;;;;;;;9.23;2.70;;;;;;;12.94;65.47;102401.88;5007281;28;20467;-68
2023/05/29 08:07:48;;;;;;;8.32;2.15;;;;;;;13.02;66.35;102398.72;5007499;28;20120;-70
2023/05/29 08:10:14;;;;;;;8.85;2.17;;;;;;;13.32;66.23;102393.31;5024505;28;20025;-69
2023/05/29 08:12:39;;;;;;;10.05;2.25;;;;;;;13.58;64.52;102396.38;5020531;28;20041;-69
2023/05/29 08:15:07;;;;;;;11.77;2.58;;;;;;;13.75;62.44;102397.06;5005811;28;20022;-68
2023/05/29 08:17:33;;;;;;;12.32;2.65;;;;;;;14.00;62.77;102391.00;5007290;28;20105;-68
2023/05/29 08:19:58;;;;;;;10.32;2.90;;;;;;;14.18;61.82;102401.78;5007537;28;20420;-69
2023/05/29 08:22:28;;;;;;;17.08;2.65;;;;;;;14.39;62.90;102400.41;5007164;28;20061;-69
2023/05/29 08:24:53;;;;;;;11.88;2.60;;;;;;;14.39;60.62;102407.75;5007600;28;20073;-69
2023/05/29 08:27:19;;;;;;;18.08;2.67;;;;;;;14.50;61.68;102414.34;5022274;28;20049;-69
2023/05/29 08:29:44;;;;;;;17.98;2.65;;;;;;;14.60;61.39;102414.63;5008085;28;20057;-68
2023/05/29 08:32:10;;;;;;;9.57;2.05;;;;;;;14.71;60.26;102409.31;5018852;28;20103;-69
2023/05/29 08:34:35;;;;;;;9.52;1.88;;;;;;;14.77;58.84;102403.44;5026871;28;20033;-68
2023/05/29 08:37:00;;;;;;;16.63;2.90;;;;;;;14.64;59.58;102399.75;5024124;28;20048;-69
2023/05/29 08:39:25;;;;;;;10.80;1.90;;;;;;;14.76;60.16;102400.81;5026465;28;20037;-69
2023/05/29 08:42:01;;;;;;;10.68;2.35;;;;;;;14.85;59.63;102408.44;5008164;28;20055;-68
2023/05/29 08:44:30;;;;;;;19.98;2.75;;;;;;;15.08;60.23;102415.13;5024975;28;20041;-69
2023/05/29 08:46:56;;;;;;;12.30;2.60;;;;;;;15.17;58.66;102409.03;5026781;28;20041;-69
2023/05/29 08:49:22;;;;;;;13.38;2.88;;;;;;;15.34;60.02;102418.88;5019740;28;20049;-69
2023/05/29 08:51:55;;;;;;;10.40;2.53;;;;;;;15.20;57.99;102410.69;5006878;28;20026;-68
2023/05/29 08:54:21;;;;;;;13.02;2.17;;;;;;;15.10;57.05;102412.28;5006584;28;20042;-69
2023/05/29 08:56:47;;;;;;;10.82;2.58;;;;;;;15.23;57.58;102415.97;5021268;28;20432;-69
2023/05/29 08:59:12;;;;;;;6.95;2.10;;;;;;;15.49;59.54;102411.47;5009814;28;20042;-69
2023/05/29 09:01:38;;;;;;;7.55;2.22;;;;;;;15.84;58.02;102414.53;5005681;28;20038;-69
2023/05/29 09:04:04;;;;;;;12.43;2.67;;;;;;;15.99;55.90;102423.56;5007053;28;20053;-68
2023/05/29 09:06:30;;;;;;;12.88;2.30;;;;;;;15.96;54.88;102421.06;5006652;28;20545;-69
2023/05/29 09:08:57;;;;;;;12.75;2.88;;;;;;;15.99;54.41;102410.75;5006623;28;20128;-69
2023/05/29 09:11:23;;;;;;;9.00;2.38;;;;;;;16.06;55.27;102417.56;5005964;28;20026;-69
2023/05/29 09:13:48;;;;;;;8.38;2.22;;;;;;;16.28;55.13;102416.03;5006661;28;20037;-69
2023/05/29 09:16:17;;;;;;;14.15;2.75;;;;;;;16.20;54.28;102410.22;5007096;28;20068;-69
2023/05/29 09:18:45;;;;;;;11.63;2.55;;;;;;;16.40;52.25;102420.63;5023246;28;20437;-69
2023/05/29 09:21:26;;;;;;;8.75;2.15;;;;;;;16.39;54.08;102416.13;5024783;28;20172;-68
2023/05/29 09:23:54;;;;;;;8.95;2.33;;;;;;;16.41;52.53;102408.66;5007591;28;20442;-68
2023/05/29 09:26:23;;;;;;;7.65;2.28;;;;;;;16.59;54.59;102410.06;5009260;28;20478;-68
2023/05/29 09:28:48;;;;;;;15.15;2.65;;;;;;;16.68;53.20;102419.50;5009866;28;20212;-69
2023/05/29 09:31:16;;;;;;;11.73;2.58;;;;;;;16.88;51.34;102418.09;5011062;28;20101;-69
2023/05/29 09:33:48;;;;;;;8.38;2.95;;;;;;;16.83;53.62;102406.53;5010769;28;20088;-69
2023/05/29 09:36:25;;;;;;;16.42;2.92;;;;;;;16.89;53.27;102417.09;5010941;28;20081;-68
2023/05/29 09:38:51;;;;;;;11.13;2.03;;;;;;;16.96;52.91;102401.88;5009905;28;20041;-70
2023/05/29 09:41:23;;;;;;;9.65;2.08;;;;;;;16.96;51.66;102404.63;5009901;28;20111;-68
2023/05/29 09:43:54;;;;;;;9.50;2.35;;;;;;;16.94;52.13;102405.75;5015678;28;20315;-69
2023/05/29 09:46:20;;;;;;;9.13;2.70;;;;;;;16.90;52.49;102404.22;5009845;28;20113;-69
2023/05/29 09:48:46;;;;;;;13.27;2.60;;;;;;;16.91;52.88;102404.09;5010742;28;20486;-69
2023/05/29 09:51:22;;;;;;;8.30;2.35;;;;;;;17.04;52.61;102404.06;5009976;28;20043;-68
2023/05/29 09:53:50;;;;;;;10.23;2.55;;;;;;;17.06;50.57;102415.81;5009722;28;20073;-68
2023/05/29 09:56:17;;;;;;;13.82;2.70;;;;;;;17.18;54.66;102409.41;5008295;28;20478;-69
2023/05/29 09:58:47;;;;;;;10.77;2.80;;;;;;;17.19;51.18;102407.53;5010050;28;20034;-69
2023/05/29 10:01:15;;;;;;;13.60;2.63;;;;;;;17.33;50.83;102402.75;5009155;28;20045;-68
2023/05/29 10:03:42;;;;;;;8.25;2.20;;;;;;;17.69;55.61;102402.78;5009660;28;20065;-69
2023/05/29 10:06:11;;;;;;;10.13;2.88;;;;;;;17.67;50.16;102402.88;5008321;28;20069;-69
2023/05/29 10:08:42;;;;;;;12.25;2.67;;;;;;;17.85;52.87;102397.84;5009089;28;20221;-68
2023/05/29 10:11:15;;;;;;;13.25;2.70;;;;;;;17.90;49.92;102408.50;5019112;28;20473;-68
2023/05/29 10:13:41;;;;;;;8.93;2.65;;;;;;;18.00;49.59;102404.94;5026862;28;20033;-68
2023/05/29 10:16:10;;;;;;;12.35;2.88;;;;;;;17.90;48.87;102405.75;5029639;28;20033;-68
2023/05/29 10:18:41;;;;;;;13.55;3.08;;;;;;;18.00;49.71;102415.03;5029315;28;20045;-68
2023/05/29 10:21:07;;;;;;;8.02;2.38;;;;;;;18.02;49.39;102404.81;5015933;28;20279;-69
2023/05/29 10:23:36;;;;;;;9.02;3.00;;;;;;;18.07;48.48;102405.31;5009026;28;20092;-68
2023/05/29 10:26:25;;;;;;;7.68;2.10;;;;;;;18.36;49.48;102405.72;5017928;28;20033;-69
2023/05/29 10:29:05;;;;;;;6.68;2.35;;;;;;;18.28;48.80;102397.22;5014615;28;20046;-69
2023/05/29 10:31:48;;;;;;;9.15;2.40;;;;;;;18.99;50.81;102392.34;5009444;28;20501;-69
2023/05/29 10:34:45;;;;;;;10.68;2.55;;;;;;;19.29;50.94;102387.00;5009861;28;20588;-69
2023/05/29 10:37:24;;;;;;;9.95;2.95;;;;;;;19.26;48.65;102380.88;5008886;28;20497;-69
2023/05/29 10:39:50;;;;;;;12.27;2.88;;;;;;;19.10;46.48;102382.16;5008772;28;20041;-69
2023/05/29 10:42:58;;;;;;;9.65;2.38;;;;;;;19.28;48.11;102385.25;5008357;28;20506;-68
2023/05/29 10:45:32;;;;;;;8.38;2.17;;;;;;;19.15;48.38;102390.03;5006509;28;20504;-69
2023/05/29 10:48:06;;;;;;;7.20;2.42;;;;;;;19.94;51.04;102379.56;5007125;28;20050;-69
2023/05/29 10:50:42;;;;;;;10.20;2.10;;;;;;;20.09;50.90;102391.16;5007848;28;20050;-69
2023/05/29 10:53:11;;;;;;;8.38;2.50;;;;;;;19.95;46.48;102385.97;5016836;28;20394;-69
2023/05/29 10:55:38;;;;;;;10.50;2.58;;;;;;;19.80;44.10;102397.34;5013656;28;20287;-68
2023/05/29 10:58:07;;;;;;;9.13;2.30;;;;;;;19.93;44.92;102375.06;5020556;28;20041;-68
2023/05/29 11:00:32;;;;;;;12.27;3.00;;;;;;;20.28;43.46;102382.97;5008754;28;20040;-68
2023/05/29 11:03:03;;;;;;;10.07;2.80;;;;;;;19.93;45.08;102382.50;5015595;28;20041;-68
2023/05/29 11:05:29;;;;;;;8.20;2.30;;;;;;;19.67;44.67;102387.50;5028646;28;20037;-69
2023/05/29 11:07:59;;;;;;;9.63;2.30;;;;;;;19.62;46.10;102380.50;5018687;28;20052;-69
2023/05/29 11:10:42;;;;;;;7.22;2.10;;;;;;;19.66;46.41;102374.72;5011835;28;20240;-68
2023/05/29 11:13:08;;;;;;;11.63;2.63;;;;;;;19.54;45.46;102374.75;5019687;28;20077;-68
2023/05/29 11:15:33;;;;;;;12.93;2.30;;;;;;;19.46;46.56;102366.25;5007287;28;20072;-69
2023/05/29 11:18:08;;;;;;;7.28;2.25;;;;;;;19.67;48.35;102368.19;5008470;28;20490;-69
2023/05/29 11:20:41;;;;;;;8.20;3.08;;;;;;;19.59;44.72;102372.47;5008078;28;20042;-68
2023/05/29 11:23:08;;;;;;;7.82;2.72;;;;;;;19.52;45.62;102364.81;5008152;28;20239;-69
2023/05/29 11:25:37;;;;;;;8.32;2.25;;;;;;;19.44;46.62;102365.47;5011394;28;20504;-68